Terminal Aerodrome Forecast
Issued by NWS

Home | Current Version | Previous Version | Text Only | Print | Product List | Glossary On
Versions: 1 2 3 4 5 6 7 8 9 10 11 12 13 14 15 16 17 18 19
000
FTUS43 KICT 301530 AAA
TAFCNU
TAF AMD
KCNU 301530Z 3016/3112 18005KT P6SM VCTS BKN060CB
     FM310000 17009KT P6SM VCSH SCT200
     FM311100 17006KT P6SM VCSH BKN080=

USA.gov is the U.S. government's official web portal to all federal, state and local government web resources and services.